Time;durP1;ratioP1;P1;durP2;ratioP2;P2;SDS_P1;SDS_P2;PMS_P1;PMS_P2;Temp;Humidity;BMP_temperature;BMP_pressure;BME280_temperature;BME280_humidity;BME280_pressure;Samples;Min_cycle;Max_cycle;Signal;HPM_P1;HPM_P2
2022/08/12 00:42:50;;;;;;;2.13;0.65;;;22.10;66.20;;;;;;4715792;30;20068;-75
2022/08/12 00:48:31;;;;;;;2.63;0.60;;;22.00;67.00;;;;;;4709779;30;20046;-75
2022/08/12 00:51:03;;;;;;;2.65;0.60;;;21.90;67.30;;;;;;4709609;30;20052;-75
2022/08/12 00:53:32;;;;;;;1.00;0.40;;;21.90;67.40;;;;;;4697503;30;20049;-75
2022/08/12 00:56:02;;;;;;;1.20;0.52;;;21.90;67.30;;;;;;4709372;30;20490;-75
2022/08/12 00:58:38;;;;;;;1.90;0.50;;;21.80;67.70;;;;;;4710851;30;20037;-75
2022/08/12 01:01:07;;;;;;;2.58;0.85;;;21.80;67.70;;;;;;4712956;30;20041;-75
2022/08/12 01:12:40;;;;;;;2.28;0.80;;;21.50;69.30;;;;;;4710807;30;20510;-74
2022/08/12 01:15:15;;;;;;;1.23;0.50;;;21.50;69.40;;;;;;4692558;30;20517;-75
2022/08/12 01:18:27;;;;;;;3.05;0.52;;;21.50;69.80;;;;;;4713903;30;20046;-75
2022/08/12 01:21:27;;;;;;;2.75;0.70;;;21.50;69.70;;;;;;4687935;30;20045;-74
2022/08/12 01:24:24;;;;;;;2.97;0.60;;;21.40;69.90;;;;;;4706803;30;20049;-74
2022/08/12 01:26:53;;;;;;;2.88;0.77;;;21.30;70.40;;;;;;4709344;30;20041;-75
2022/08/12 01:29:26;;;;;;;3.88;0.52;;;21.30;70.50;;;;;;4712951;30;20032;-75
2022/08/12 01:31:56;;;;;;;1.38;0.70;;;21.30;70.50;;;;;;4712936;30;20051;-75
2022/08/12 01:34:30;;;;;;;1.00;0.50;;;21.30;70.60;;;;;;4707214;30;20045;-75
2022/08/12 01:36:59;;;;;;;2.03;0.70;;;21.20;70.70;;;;;;4713164;30;20045;-75
2022/08/12 01:39:33;;;;;;;1.45;0.65;;;21.20;71.10;;;;;;4687330;30;20702;-75
2022/08/12 01:42:21;;;;;;;1.27;0.50;;;21.20;71.20;;;;;;4688682;30;20045;-75
2022/08/12 01:44:55;;;;;;;1.38;0.70;;;21.10;71.40;;;;;;4695363;30;20037;-73
2022/08/12 01:47:59;;;;;;;1.65;0.60;;;21.10;71.60;;;;;;4680986;30;20040;-73
2022/08/12 01:50:32;;;;;;;1.85;1.13;;;21.00;71.90;;;;;;4699379;30;20384;-73
2022/08/12 01:53:09;;;;;;;1.67;0.80;;;21.00;72.50;;;;;;4701214;30;20487;-73
2022/08/12 01:55:40;;;;;;;2.15;0.98;;;20.90;72.70;;;;;;4710809;30;20402;-73
2022/08/12 01:58:25;;;;;;;3.05;0.60;;;20.90;72.80;;;;;;4717739;30;20041;-73
2022/08/12 02:01:05;;;;;;;3.05;0.70;;;20.90;73.20;;;;;;4703787;30;20049;-73
2022/08/12 02:13:45;;;;;;;1.75;0.50;;;20.70;74.00;;;;;;4709634;30;20052;-73
2022/08/12 02:16:30;;;;;;;2.45;0.60;;;20.60;73.90;;;;;;4665564;30;20050;-73
2022/08/12 02:19:21;;;;;;;3.03;1.13;;;20.50;74.00;;;;;;4651789;30;20054;-73
2022/08/12 02:22:22;;;;;;;2.10;0.80;;;20.50;74.60;;;;;;4705047;30;20060;-73
2022/08/12 02:25:25;;;;;;;2.50;0.60;;;20.50;75.00;;;;;;4682380;30;20407;-72
2022/08/12 02:27:55;;;;;;;2.38;0.82;;;20.50;75.10;;;;;;4708787;30;20052;-72
2022/08/12 02:30:28;;;;;;;2.13;0.85;;;20.50;75.00;;;;;;4696689;30;20409;-73
2022/08/12 02:33:03;;;;;;;2.55;0.63;;;20.40;75.10;;;;;;4707170;30;20470;-73
2022/08/12 02:35:41;;;;;;;1.30;0.60;;;20.40;75.10;;;;;;4708808;30;20052;-73
2022/08/12 02:38:11;;;;;;;1.77;0.70;;;20.40;75.20;;;;;;4710512;30;20068;-73
2022/08/12 02:40:44;;;;;;;1.83;0.73;;;20.40;75.60;;;;;;4708121;30;20045;-73
2022/08/12 02:43:38;;;;;;;1.48;0.70;;;20.30;75.60;;;;;;4705101;30;20048;-73
2022/08/12 02:46:12;;;;;;;2.90;0.88;;;20.30;75.80;;;;;;4717066;30;20497;-73
2022/08/12 02:48:50;;;;;;;3.08;0.70;;;20.20;76.20;;;;;;4707494;30;20053;-73
2022/08/12 02:51:50;;;;;;;2.27;0.50;;;20.20;76.20;;;;;;4710256;30;20395;-73
2022/08/12 02:54:17;;;;;;;1.25;0.60;;;20.20;76.20;;;;;;4644292;30;20309;-73
2022/08/12 02:56:45;;;;;;;1.25;0.60;;;20.20;76.30;;;;;;4659848;30;20047;-73
2022/08/12 02:59:15;;;;;;;3.88;0.95;;;20.20;76.50;;;;;;4663273;30;20042;-73
2022/08/12 03:01:52;;;;;;;1.27;0.60;;;20.10;76.50;;;;;;4640126;30;20061;-74
2022/08/12 03:04:40;;;;;;;0.80;0.50;;;20.10;76.60;;;;;;4661057;30;20046;-73
2022/08/12 03:07:20;;;;;;;1.42;0.60;;;20.10;76.70;;;;;;4701293;30;20041;-73
2022/08/12 03:10:10;;;;;;;;;;;20.10;76.60;;;;;;4705217;30;20041;-73
2022/08/12 03:12:59;;;;;;;2.17;0.60;;;20.10;76.40;;;;;;4713508;30;19929;-73
2022/08/12 03:15:26;;;;;;;5.20;2.30;;;20.00;76.50;;;;;;4718340;30;20042;-73
2022/08/12 03:18:14;;;;;;;3.28;2.97;;;20.00;76.70;;;;;;4711435;30;20051;-73
2022/08/12 03:20:45;;;;;;;3.20;1.30;;;20.00;77.00;;;;;;4706258;30;20048;-74
2022/08/12 03:23:14;;;;;;;2.47;1.65;;;20.00;77.10;;;;;;4703516;30;20517;-74
2022/08/12 03:25:42;;;;;;;4.40;3.00;;;20.00;77.10;;;;;;4706418;30;20029;-75
2022/08/12 03:28:48;;;;;;;5.72;3.60;;;20.00;77.10;;;;;;4699820;30;20463;-73
2022/08/12 03:31:06;;;;;;;4.20;2.30;;;19.90;77.30;;;;;;4703696;30;20388;-72
2022/08/12 03:33:38;;;;;;;3.33;1.38;;;19.90;77.20;;;;;;4710725;30;20041;-73
2022/08/12 03:36:07;;;;;;;2.00;0.70;;;19.90;77.30;;;;;;4702537;30;20058;-73
2022/08/12 03:38:37;;;;;;;1.85;0.80;;;19.90;77.30;;;;;;4713293;30;20057;-73
2022/08/12 04:01:41;;;;;;;1.50;0.80;;;19.60;77.90;;;;;;4717569;30;20499;-75
2022/08/12 04:04:09;;;;;;;5.07;0.60;;;19.60;78.00;;;;;;4700788;30;20033;-75
2022/08/12 04:06:44;;;;;;;1.42;0.77;;;19.60;78.70;;;;;;4717303;30;20340;-73
2022/08/12 04:09:12;;;;;;;1.77;0.70;;;19.50;78.10;;;;;;4720446;30;20041;-72
2022/08/12 04:14:27;;;;;;;1.30;0.75;;;19.50;78.00;;;;;;4717643;30;20062;-75
2022/08/12 04:16:55;;;;;;;2.83;0.70;;;19.50;78.00;;;;;;4705844;30;20045;-75
2022/08/12 04:19:23;;;;;;;1.80;0.60;;;19.50;78.30;;;;;;4713861;30;20048;-75
2022/08/12 04:21:49;;;;;;;2.00;0.60;;;19.40;78.40;;;;;;4693130;30;20048;-75
2022/08/12 04:24:25;;;;;;;3.13;0.70;;;19.40;78.40;;;;;;4706493;30;20025;-75
2022/08/12 04:26:59;;;;;;;2.47;0.70;;;19.40;78.50;;;;;;4713189;30;20060;-75
2022/08/12 04:29:33;;;;;;;2.38;0.60;;;19.40;79.10;;;;;;4710967;30;20041;-75
2022/08/12 04:32:00;;;;;;;2.15;0.80;;;19.40;78.50;;;;;;4702849;30;20505;-75
2022/08/12 04:34:27;;;;;;;1.85;0.70;;;19.40;79.20;;;;;;4710124;30;20405;-78
2022/08/12 04:36:56;;;;;;;1.73;0.70;;;19.40;78.60;;;;;;4714753;30;20052;-75
2022/08/12 04:39:25;;;;;;;2.95;0.73;;;19.40;78.60;;;;;;4710569;30;20041;-75
2022/08/12 04:41:52;;;;;;;1.60;0.70;;;19.40;78.50;;;;;;4712769;30;20041;-75
2022/08/12 04:44:18;;;;;;;1.08;0.60;;;19.50;78.50;;;;;;4683338;30;20045;-75
2022/08/12 04:46:45;;;;;;;2.00;0.68;;;19.50;78.40;;;;;;4711986;30;20049;-75
2022/08/12 04:49:11;;;;;;;2.00;0.77;;;19.50;78.40;;;;;;4700752;30;20118;-75
2022/08/12 04:51:39;;;;;;;1.48;0.63;;;19.60;78.50;;;;;;4712762;30;20045;-75
2022/08/12 04:54:05;;;;;;;2.95;0.60;;;19.60;78.20;;;;;;4703753;30;20048;-75
2022/08/12 04:56:32;;;;;;;1.75;0.80;;;19.60;78.10;;;;;;4712419;30;20053;-75
2022/08/12 04:58:58;;;;;;;1.38;0.60;;;19.70;77.90;;;;;;4703269;30;20033;-75
2022/08/12 05:01:31;;;;;;;2.25;0.60;;;19.70;78.50;;;;;;4721121;30;20048;-75
2022/08/12 05:04:01;;;;;;;1.52;0.70;;;19.80;77.80;;;;;;4702389;30;20046;-75
2022/08/12 05:06:30;;;;;;;1.67;0.60;;;19.90;77.90;;;;;;4688221;30;20494;-75
2022/08/12 05:09:00;;;;;;;1.77;0.80;;;20.10;77.60;;;;;;4713198;30;20044;-75
2022/08/12 05:11:26;;;;;;;1.23;0.90;;;20.30;77.30;;;;;;4713519;30;20075;-75
2022/08/12 05:13:58;;;;;;;1.95;0.63;;;20.40;76.80;;;;;;4715620;30;20407;-75
2022/08/12 05:16:25;;;;;;;1.52;0.70;;;20.60;76.50;;;;;;4713081;30;20045;-75
2022/08/12 05:18:52;;;;;;;1.30;0.60;;;20.60;76.20;;;;;;4688793;30;20048;-75
2022/08/12 05:21:19;;;;;;;1.13;0.70;;;20.60;76.20;;;;;;4703211;30;20045;-74
2022/08/12 05:23:45;;;;;;;1.55;0.70;;;20.50;76.20;;;;;;4710450;30;20040;-73
2022/08/12 05:26:12;;;;;;;3.00;0.90;;;20.60;76.00;;;;;;4704235;30;20057;-73
2022/08/12 05:28:39;;;;;;;1.23;0.70;;;20.60;75.80;;;;;;4714321;30;20029;-73
2022/08/12 05:31:06;;;;;;;1.35;0.95;;;20.60;75.60;;;;;;4709783;30;20077;-74
2022/08/12 05:33:36;;;;;;;2.58;1.17;;;20.70;75.50;;;;;;4690940;30;20192;-74
2022/08/12 05:36:12;;;;;;;1.95;1.10;;;20.70;75.40;;;;;;4698645;30;20045;-74
2022/08/12 05:38:55;;;;;;;1.90;1.10;;;20.80;75.30;;;;;;4702689;30;20042;-73
2022/08/12 05:41:28;;;;;;;3.42;0.88;;;20.80;75.00;;;;;;4713417;30;20037;-75
2022/08/12 05:43:58;;;;;;;3.95;2.85;;;20.90;74.90;;;;;;4695761;30;20041;-75
2022/08/12 05:46:27;;;;;;;3.38;1.88;;;21.00;74.80;;;;;;4697019;30;20061;-74
2022/08/12 05:48:59;;;;;;;4.63;1.80;;;21.20;74.60;;;;;;4696610;30;20038;-75
2022/08/12 05:51:32;;;;;;;3.42;1.50;;;21.30;74.40;;;;;;4712257;30;20394;-75
2022/08/12 05:53:58;;;;;;;1.55;0.90;;;21.40;74.20;;;;;;4714175;30;20053;-74
2022/08/12 05:56:28;;;;;;;2.75;1.20;;;21.60;73.90;;;;;;4697632;30;20045;-74
2022/08/12 05:59:11;;;;;;;1.30;0.60;;;21.80;73.50;;;;;;4698500;30;20041;-75
2022/08/12 06:01:42;;;;;;;3.95;0.80;;;21.90;73.10;;;;;;4713778;30;20402;-75
2022/08/12 06:04:08;;;;;;;1.00;0.60;;;22.10;72.70;;;;;;4711301;30;20036;-74
2022/08/12 06:06:40;;;;;;;1.08;0.60;;;22.30;72.40;;;;;;4695471;30;20049;-73
2022/08/12 06:09:12;;;;;;;1.33;0.57;;;22.50;72.10;;;;;;4696904;30;20060;-73
2022/08/12 06:11:41;;;;;;;1.35;0.70;;;22.70;71.80;;;;;;4712922;30;20044;-73
2022/08/12 06:14:07;;;;;;;1.65;0.57;;;22.70;71.30;;;;;;4708487;30;20056;-73
2022/08/12 06:16:34;;;;;;;2.95;0.95;;;22.90;70.90;;;;;;4683225;30;20053;-73
2022/08/12 06:19:01;;;;;;;1.35;0.70;;;23.10;70.50;;;;;;4711996;30;20036;-75
2022/08/12 06:21:27;;;;;;;2.72;0.70;;;23.20;70.20;;;;;;4712984;30;20497;-73
2022/08/12 06:23:55;;;;;;;2.10;0.80;;;23.30;69.70;;;;;;4698411;30;20061;-72
2022/08/12 06:26:21;;;;;;;4.03;0.80;;;23.40;69.40;;;;;;4713258;30;20045;-73
2022/08/12 06:28:49;;;;;;;3.00;0.52;;;23.60;69.40;;;;;;4715786;30;20041;-73
2022/08/12 06:31:18;;;;;;;2.20;0.70;;;23.80;69.00;;;;;;4702016;30;20049;-73
2022/08/12 06:33:46;;;;;;;1.60;0.70;;;23.90;68.60;;;;;;4707256;30;20036;-73
2022/08/12 06:36:21;;;;;;;3.95;0.80;;;24.10;68.10;;;;;;4714435;30;20041;-73
2022/08/12 06:38:48;;;;;;;1.42;0.90;;;24.40;67.20;;;;;;4711635;30;20358;-73
2022/08/12 06:44:19;;;;;;;1.10;0.60;;;24.80;66.10;;;;;;4709497;30;20038;-74
2022/08/12 06:46:57;;;;;;;1.73;0.80;;;25.00;65.70;;;;;;4708860;30;20048;-74
2022/08/12 06:49:24;;;;;;;2.45;0.95;;;25.20;65.20;;;;;;4689305;30;20045;-74
2022/08/12 06:51:54;;;;;;;3.22;0.90;;;25.50;64.70;;;;;;4709280;30;20037;-74
2022/08/12 06:54:27;;;;;;;2.55;1.17;;;25.90;64.00;;;;;;4698531;30;20037;-74
2022/08/12 06:56:54;;;;;;;2.88;0.82;;;26.20;63.30;;;;;;4700718;30;20052;-74
2022/08/12 06:59:20;;;;;;;1.70;0.70;;;26.30;63.00;;;;;;4712938;30;20044;-74
2022/08/12 07:01:47;;;;;;;6.78;0.80;;;26.30;62.70;;;;;;4708647;30;20451;-74
2022/08/12 07:04:17;;;;;;;2.05;0.73;;;26.30;62.40;;;;;;4712146;30;20400;-73
2022/08/12 07:07:09;;;;;;;3.60;0.90;;;26.30;62.10;;;;;;4708697;30;20056;-74
2022/08/12 07:09:39;;;;;;;1.90;0.80;;;26.40;61.40;;;;;;4710204;30;20406;-75
2022/08/12 07:12:18;;;;;;;2.95;0.77;;;26.70;61.20;;;;;;4709585;30;20041;-75
2022/08/12 07:14:49;;;;;;;2.40;0.80;;;26.90;60.80;;;;;;4708795;30;20045;-74
2022/08/12 07:17:15;;;;;;;2.72;0.80;;;27.10;60.20;;;;;;4710894;30;20360;-74
2022/08/12 07:19:43;;;;;;;4.55;2.05;;;27.10;60.00;;;;;;4714738;30;20029;-74
2022/08/12 07:22:12;;;;;;;3.17;1.67;;;27.20;60.20;;;;;;4712291;30;20033;-75
2022/08/12 07:24:38;;;;;;;3.38;0.90;;;27.30;60.10;;;;;;4710447;30;20551;-74
2022/08/12 07:27:05;;;;;;;2.47;1.00;;;27.40;59.90;;;;;;4695989;30;20507;-74
2022/08/12 07:29:31;;;;;;;17.38;15.30;;;27.50;59.70;;;;;;4712348;30;20057;-74
2022/08/12 07:31:58;;;;;;;8.40;7.10;;;27.60;59.40;;;;;;4686077;30;20061;-74
2022/08/12 07:34:25;;;;;;;3.92;3.15;;;27.70;59.10;;;;;;4698220;30;20072;-74
2022/08/12 07:36:51;;;;;;;3.58;1.48;;;27.80;58.80;;;;;;4707732;30;20467;-74
2022/08/12 07:39:18;;;;;;;2.30;0.90;;;27.90;58.20;;;;;;4712107;30;20270;-75
2022/08/12 07:41:44;;;;;;;2.83;0.85;;;28.00;57.90;;;;;;4701002;30;20557;-74
2022/08/12 07:44:12;;;;;;;1.80;0.90;;;28.00;57.90;;;;;;4692991;30;20483;-75
2022/08/12 07:46:42;;;;;;;2.00;0.90;;;28.00;57.80;;;;;;4695378;30;20041;-74
2022/08/12 07:49:13;;;;;;;2.67;0.85;;;28.10;57.80;;;;;;4712440;30;20371;-74
2022/08/12 07:51:41;;;;;;;3.08;0.77;;;28.20;57.60;;;;;;4710422;30;20450;-74
2022/08/12 07:54:08;;;;;;;2.03;0.80;;;28.20;57.60;;;;;;4698063;30;20069;-74
2022/08/12 07:56:40;;;;;;;2.97;0.70;;;28.20;57.40;;;;;;4703878;30;20049;-74
2022/08/12 07:59:08;;;;;;;2.80;0.60;;;28.30;57.50;;;;;;4712622;30;20469;-75
2022/08/12 08:01:36;;;;;;;1.45;0.95;;;28.40;57.50;;;;;;4701540;30;20049;-74
2022/08/12 08:06:49;;;;;;;2.40;0.70;;;28.50;57.10;;;;;;4712340;30;20044;-74
2022/08/12 08:09:18;;;;;;;2.50;0.77;;;28.60;56.90;;;;;;4685009;30;20486;-74
2022/08/12 08:14:30;;;;;;;1.65;1.10;;;28.80;57.00;;;;;;4711118;30;20076;-75
2022/08/12 08:16:59;;;;;;;3.00;0.60;;;28.90;57.00;;;;;;4713943;30;20041;-74
2022/08/12 08:19:27;;;;;;;3.58;2.75;;;29.00;57.20;;;;;;4693317;30;20041;-74
2022/08/12 08:21:55;;;;;;;2.00;1.52;;;29.10;57.20;;;;;;4713108;30;20041;-74
2022/08/12 08:24:25;;;;;;;1.73;0.90;;;29.10;57.20;;;;;;4697097;30;20482;-74
2022/08/12 08:26:54;;;;;;;2.65;1.00;;;29.20;56.70;;;;;;4702651;30;20060;-74
2022/08/12 08:29:21;;;;;;;3.47;1.17;;;29.30;56.00;;;;;;4713927;30;20048;-74
2022/08/12 08:31:52;;;;;;;1.50;0.80;;;29.30;55.90;;;;;;4712617;30;20053;-75
2022/08/12 08:34:20;;;;;;;1.93;0.63;;;29.40;56.00;;;;;;4710471;30;20048;-75
2022/08/12 08:36:47;;;;;;;2.20;0.85;;;29.50;55.90;;;;;;4700777;30;20422;-75
2022/08/12 08:39:20;;;;;;;4.68;0.95;;;29.70;55.50;;;;;;4712105;30;20514;-75
2022/08/12 08:44:36;;;;;;;2.38;0.90;;;29.80;55.00;;;;;;4711461;30;20041;-75
2022/08/12 08:47:07;;;;;;;1.83;0.82;;;30.00;54.80;;;;;;4708780;30;20044;-75
2022/08/12 08:49:37;;;;;;;2.03;0.77;;;30.00;54.40;;;;;;4712361;30;20045;-75
2022/08/12 08:52:05;;;;;;;3.47;1.02;;;30.20;54.60;;;;;;4704710;30;20530;-75
2022/08/12 08:54:32;;;;;;;1.88;0.70;;;30.20;53.00;;;;;;4710694;30;20048;-75
2022/08/12 08:57:00;;;;;;;1.38;0.70;;;30.30;53.20;;;;;;4696647;30;20068;-75
2022/08/12 08:59:30;;;;;;;1.40;0.70;;;30.40;53.00;;;;;;4715984;30;20041;-75
2022/08/12 09:02:01;;;;;;;1.23;0.80;;;30.50;52.90;;;;;;4708682;30;20029;-75
2022/08/12 09:04:27;;;;;;;3.50;1.02;;;30.70;52.40;;;;;;4707346;30;20031;-75
2022/08/12 09:06:57;;;;;;;2.20;0.93;;;30.80;51.60;;;;;;4710341;30;20045;-75
2022/08/12 09:09:24;;;;;;;2.13;0.88;;;30.90;50.00;;;;;;4709219;30;20053;-75
2022/08/12 09:14:35;;;;;;;3.03;1.10;;;31.00;49.10;;;;;;4710215;30;20439;-75
2022/08/12 09:17:04;;;;;;;2.13;0.75;;;31.10;48.20;;;;;;4710997;30;20122;-75
2022/08/12 09:19:30;;;;;;;2.03;0.90;;;31.00;48.10;;;;;;4711321;30;20390;-75
2022/08/12 09:21:57;;;;;;;4.13;0.82;;;31.10;48.10;;;;;;4716249;30;20045;-76
2022/08/12 09:24:23;;;;;;;1.80;0.70;;;31.20;48.10;;;;;;4710356;30;20048;-75
2022/08/12 09:26:49;;;;;;;0.93;0.60;;;31.20;48.10;;;;;;4715504;30;20053;-76
2022/08/12 09:29:22;;;;;;;0.90;0.70;;;31.40;48.10;;;;;;4708402;30;20056;-75
2022/08/12 09:31:52;;;;;;;1.60;0.60;;;31.60;47.90;;;;;;4703316;30;20070;-75
2022/08/12 09:34:19;;;;;;;1.50;0.75;;;31.80;47.90;;;;;;4696972;30;20367;-76
2022/08/12 09:36:46;;;;;;;1.93;0.70;;;32.00;47.60;;;;;;4699545;30;20451;-76
2022/08/12 09:39:13;;;;;;;0.85;0.60;;;32.10;47.10;;;;;;4711872;30;20037;-75
2022/08/12 09:41:44;;;;;;;2.13;0.60;;;32.10;46.80;;;;;;4711963;30;20041;-76
2022/08/12 09:46:56;;;;;;;2.58;0.70;;;32.40;46.30;;;;;;4711769;30;20037;-75
2022/08/12 09:49:23;;;;;;;1.70;0.80;;;32.40;45.60;;;;;;4705427;30;20049;-75
2022/08/12 09:51:50;;;;;;;3.33;0.80;;;32.50;45.70;;;;;;4710608;30;20082;-75
2022/08/12 09:54:26;;;;;;;2.55;0.88;;;32.60;45.40;;;;;;4696718;30;20049;-76
2022/08/12 09:57:02;;;;;;;5.18;4.68;;;32.70;44.50;;;;;;4668536;30;20058;-76
2022/08/12 09:59:35;;;;;;;2.15;1.95;;;32.70;44.70;;;;;;4681507;30;20050;-75
2022/08/12 10:02:02;;;;;;;2.20;1.02;;;32.80;45.00;;;;;;4676202;30;20085;-76
2022/08/12 10:04:29;;;;;;;1.35;0.80;;;33.00;44.90;;;;;;4663728;30;20542;-76
2022/08/12 10:06:55;;;;;;;1.58;0.70;;;33.10;44.80;;;;;;4676332;30;20458;-76
2022/08/12 10:09:22;;;;;;;2.53;0.88;;;33.20;44.70;;;;;;4682931;30;20042;-76
2022/08/12 10:14:37;;;;;;;2.40;0.65;;;33.30;44.40;;;;;;4680749;30;20057;-75
2022/08/12 10:19:58;;;;;;;1.58;0.80;;;33.40;44.00;;;;;;4676067;30;20054;-74
2022/08/12 10:22:25;;;;;;;2.58;0.70;;;33.50;44.40;;;;;;4680260;30;20069;-74
2022/08/12 10:30:24;;;;;;;3.15;1.10;;;33.80;43.80;;;;;;4709658;30;20058;-73
2022/08/12 10:32:58;;;;;;;2.20;1.20;;;33.90;42.40;;;;;;4709151;30;20053;-73
2022/08/12 10:35:30;;;;;;;2.75;0.70;;;33.90;42.40;;;;;;4711702;30;20049;-73
2022/08/12 10:38:00;;;;;;;5.53;3.42;;;33.90;42.10;;;;;;4708160;30;20033;-74
2022/08/12 10:40:30;;;;;;;5.28;3.00;;;33.90;42.20;;;;;;4701811;30;20856;-74
2022/08/12 10:45:41;;;;;;;2.33;0.75;;;34.30;42.20;;;;;;4708476;30;20056;-74
2022/08/12 10:48:07;;;;;;;3.35;0.70;;;34.50;41.90;;;;;;4707743;30;20049;-74
2022/08/12 10:50:34;;;;;;;1.52;0.60;;;34.60;41.30;;;;;;4711341;30;20049;-74
2022/08/12 10:53:03;;;;;;;1.70;0.60;;;34.90;42.50;;;;;;4710004;30;20374;-74
2022/08/12 10:55:29;;;;;;;2.97;0.73;;;35.20;41.80;;;;;;4714268;30;20056;-74
2022/08/12 10:57:56;;;;;;;1.70;0.77;;;35.60;41.20;;;;;;4710652;30;20395;-75
2022/08/12 11:00:23;;;;;;;1.23;0.70;;;35.90;41.00;;;;;;4694995;30;20049;-75
2022/08/12 11:02:53;;;;;;;5.50;0.70;;;36.10;38.80;;;;;;4697578;30;20040;-74
2022/08/12 11:05:20;;;;;;;1.42;0.70;;;36.10;38.70;;;;;;4700274;30;20063;-74
2022/08/12 11:07:49;;;;;;;2.55;0.95;;;36.30;38.60;;;;;;4672364;30;21048;-74
2022/08/12 11:10:16;;;;;;;2.80;1.30;;;36.40;38.60;;;;;;4699473;30;20514;-73
2022/08/12 11:12:46;;;;;;;2.08;1.17;;;36.50;39.00;;;;;;4710849;30;20045;-74
2022/08/12 11:15:13;;;;;;;2.38;1.10;;;36.80;39.40;;;;;;4706456;30;20042;-74
2022/08/12 11:17:40;;;;;;;4.65;0.90;;;37.10;39.60;;;;;;4710503;30;20053;-75
2022/08/12 11:20:07;;;;;;;6.32;0.80;;;37.50;39.00;;;;;;4687621;30;20053;-75
2022/08/12 11:22:33;;;;;;;1.55;0.88;;;37.80;37.60;;;;;;4687170;30;20049;-75
2022/08/12 11:25:00;;;;;;;1.73;1.00;;;37.90;38.00;;;;;;4694597;30;20534;-74
2022/08/12 11:27:26;;;;;;;1.75;0.70;;;38.10;38.00;;;;;;4717486;30;20050;-74
2022/08/12 11:29:52;;;;;;;2.35;0.82;;;38.40;38.10;;;;;;4712990;30;20375;-74
2022/08/12 11:32:20;;;;;;;2.25;0.70;;;38.60;37.90;;;;;;4704518;30;20037;-74
2022/08/12 11:34:46;;;;;;;2.92;0.70;;;39.00;37.60;;;;;;4696609;30;20049;-74
2022/08/12 11:37:12;;;;;;;3.78;0.70;;;39.30;37.30;;;;;;4720126;30;20042;-74
2022/08/12 11:39:39;;;;;;;7.10;3.17;;;39.50;35.70;;;;;;4714918;30;20359;-74
2022/08/12 11:42:08;;;;;;;3.15;1.08;;;39.30;36.00;;;;;;4717704;30;20378;-75
2022/08/12 11:44:41;;;;;;;3.25;1.17;;;39.30;36.10;;;;;;4702919;30;20271;-74
2022/08/12 11:47:08;;;;;;;3.17;1.00;;;39.40;35.40;;;;;;4712077;30;20049;-73
2022/08/12 11:49:34;;;;;;;2.92;0.82;;;39.40;35.40;;;;;;4716893;30;20037;-73
2022/08/12 11:52:01;;;;;;;1.35;0.70;;;39.40;35.20;;;;;;4716301;30;20049;-73
2022/08/12 11:54:27;;;;;;;1.90;0.60;;;39.50;35.30;;;;;;4713439;30;20380;-73
2022/08/12 11:56:53;;;;;;;1.42;0.60;;;39.80;35.70;;;;;;4702821;30;20059;-74
2022/08/12 11:59:20;;;;;;;3.10;0.73;;;40.20;36.00;;;;;;4717586;30;20057;-75
2022/08/12 12:01:46;;;;;;;1.92;0.80;;;40.60;35.60;;;;;;4714451;30;20045;-74
2022/08/12 12:04:12;;;;;;;4.40;0.77;;;40.70;35.00;;;;;;4712090;30;20503;-73
2022/08/12 12:06:42;;;;;;;3.28;0.90;;;40.90;35.50;;;;;;4717196;30;20045;-73
2022/08/12 12:09:08;;;;;;;1.85;0.68;;;41.10;34.90;;;;;;4712144;30;20052;-74
2022/08/12 12:11:38;;;;;;;1.98;0.70;;;41.10;34.90;;;;;;4683444;30;20065;-74
2022/08/12 12:14:04;;;;;;;3.47;0.80;;;41.30;34.60;;;;;;4712457;30;20045;-74
2022/08/12 12:16:30;;;;;;;2.40;0.82;;;41.60;34.40;;;;;;4712990;30;20041;-74
2022/08/12 12:18:57;;;;;;;2.55;0.90;;;41.80;34.30;;;;;;4712801;30;20052;-72
2022/08/12 12:21:23;;;;;;;1.67;0.77;;;42.20;34.50;;;;;;4695865;30;20045;-73
2022/08/12 12:23:51;;;;;;;1.50;0.80;;;42.60;34.40;;;;;;4697568;30;20048;-73
2022/08/12 12:26:17;;;;;;;1.77;0.70;;;42.80;33.90;;;;;;4707667;30;20064;-73
2022/08/12 12:28:47;;;;;;;1.92;0.73;;;42.90;33.10;;;;;;4710219;30;20049;-72
2022/08/12 12:31:23;;;;;;;1.38;0.60;;;43.00;33.00;;;;;;4709558;30;20061;-73
2022/08/12 12:33:53;;;;;;;2.92;0.90;;;43.20;32.90;;;;;;4704794;30;20054;-73
2022/08/12 12:36:20;;;;;;;2.60;0.70;;;43.50;32.90;;;;;;4708109;30;20056;-73
2022/08/12 12:38:46;;;;;;;1.33;0.73;;;43.50;33.00;;;;;;4705487;30;20048;-72
2022/08/12 12:41:13;;;;;;;1.85;0.80;;;43.60;31.90;;;;;;4695054;30;20498;-72
2022/08/12 12:43:47;;;;;;;1.50;0.80;;;43.60;32.00;;;;;;4707756;30;20044;-73
2022/08/12 12:46:13;;;;;;;1.83;0.98;;;43.70;31.80;;;;;;4708345;30;20048;-73
2022/08/12 12:48:40;;;;;;;2.53;0.80;;;43.70;30.90;;;;;;4706816;30;20071;-73
2022/08/12 12:51:15;;;;;;;2.63;0.70;;;43.40;30.80;;;;;;4695817;30;20414;-73
2022/08/12 12:53:50;;;;;;;2.38;0.60;;;43.40;31.50;;;;;;4708842;30;20144;-73
2022/08/12 12:56:21;;;;;;;3.50;0.80;;;43.60;31.40;;;;;;4704252;30;20399;-73
2022/08/12 12:58:52;;;;;;;1.77;0.80;;;43.90;31.20;;;;;;4711192;30;20040;-73
2022/08/12 13:01:24;;;;;;;2.88;0.77;;;44.20;31.00;;;;;;4709404;30;20493;-73
2022/08/12 13:03:55;;;;;;;2.17;0.60;;;44.30;30.90;;;;;;4706175;30;20033;-74
2022/08/12 13:06:24;;;;;;;1.05;0.70;;;44.60;31.30;;;;;;4710756;30;20406;-73
2022/08/12 13:08:54;;;;;;;2.17;0.80;;;44.60;30.00;;;;;;4702536;30;20032;-73
2022/08/12 13:11:21;;;;;;;1.88;0.70;;;44.40;30.00;;;;;;4707540;30;20041;-73
2022/08/12 13:13:52;;;;;;;1.48;0.70;;;44.30;30.40;;;;;;4708839;30;20060;-73
2022/08/12 13:16:20;;;;;;;1.55;0.80;;;44.60;30.40;;;;;;4708935;30;20403;-73
2022/08/12 13:18:48;;;;;;;1.23;0.60;;;44.80;30.50;;;;;;4711722;30;20074;-73
2022/08/12 13:21:16;;;;;;;2.63;0.88;;;44.90;30.10;;;;;;4695659;30;20525;-73
2022/08/12 13:23:44;;;;;;;1.98;0.63;;;44.90;30.00;;;;;;4710441;30;20510;-73
2022/08/12 13:26:20;;;;;;;1.77;0.70;;;45.00;29.90;;;;;;4697802;30;20481;-73
2022/08/12 13:28:52;;;;;;;2.95;0.70;;;45.20;30.00;;;;;;4711596;30;20391;-73
2022/08/12 13:31:21;;;;;;;2.08;0.57;;;45.40;30.00;;;;;;4712608;30;20053;-73
2022/08/12 13:33:50;;;;;;;1.23;0.70;;;45.80;29.90;;;;;;4710405;30;20041;-73
2022/08/12 13:36:19;;;;;;;2.05;0.68;;;45.80;29.60;;;;;;4708709;30;20508;-73
2022/08/12 13:38:49;;;;;;;1.52;0.80;;;46.00;29.70;;;;;;4712937;30;20049;-73
2022/08/12 13:41:31;;;;;;;1.70;1.02;;;46.40;29.80;;;;;;4690817;30;20056;-73
2022/08/12 13:43:59;;;;;;;2.45;0.73;;;46.60;29.30;;;;;;4709499;30;20056;-73
2022/08/12 13:46:28;;;;;;;2.80;0.80;;;46.70;29.50;;;;;;4705765;30;20048;-73
2022/08/12 13:48:58;;;;;;;3.90;0.70;;;46.90;29.30;;;;;;4707820;30;20076;-73
2022/08/12 13:51:35;;;;;;;2.60;0.80;;;47.10;28.70;;;;;;4710061;30;20037;-73
2022/08/12 13:54:04;;;;;;;2.22;0.70;;;46.40;28.30;;;;;;4706037;30;20509;-73
2022/08/12 13:56:35;;;;;;;2.20;0.52;;;45.90;28.90;;;;;;4708824;30;20045;-73
2022/08/12 13:59:06;;;;;;;3.20;0.77;;;46.00;29.10;;;;;;4707861;30;20053;-73
2022/08/12 14:01:40;;;;;;;2.03;0.82;;;46.40;29.10;;;;;;4711135;30;20041;-73
2022/08/12 14:04:10;;;;;;;2.33;0.90;;;46.70;28.90;;;;;;4706205;30;20060;-73
2022/08/12 14:06:37;;;;;;;1.15;0.60;;;46.60;28.80;;;;;;4706152;30;20041;-73
2022/08/12 14:09:04;;;;;;;1.35;0.75;;;46.70;28.80;;;;;;4710922;30;20041;-73
2022/08/12 14:11:30;;;;;;;2.65;0.85;;;46.90;29.00;;;;;;4694114;30;20133;-73
2022/08/12 14:13:59;;;;;;;2.00;0.70;;;47.20;29.00;;;;;;4707545;30;20033;-73
2022/08/12 14:16:30;;;;;;;2.25;0.60;;;47.10;28.60;;;;;;4713481;30;20044;-73
2022/08/12 14:18:56;;;;;;;2.35;0.65;;;47.10;28.80;;;;;;4710638;30;20041;-73
2022/08/12 14:21:22;;;;;;;0.90;0.60;;;47.40;29.00;;;;;;4696594;30;20407;-73
2022/08/12 14:23:51;;;;;;;3.47;0.68;;;47.70;28.60;;;;;;4712548;30;20379;-72
2022/08/12 14:26:23;;;;;;;3.15;0.90;;;47.90;28.40;;;;;;4693925;30;20078;-73
2022/08/12 14:28:54;;;;;;;6.13;1.25;;;47.80;27.90;;;;;;4702251;30;20033;-73
2022/08/12 14:31:22;;;;;;;4.07;0.85;;;47.60;28.10;;;;;;4690148;30;20054;-73
2022/08/12 14:33:51;;;;;;;1.33;0.70;;;47.70;28.00;;;;;;4692808;30;20053;-72
2022/08/12 14:36:20;;;;;;;1.48;0.60;;;47.30;27.80;;;;;;4695300;30;20515;-73
2022/08/12 14:38:48;;;;;;;1.58;0.60;;;47.00;28.00;;;;;;4695726;30;20056;-73
2022/08/12 14:41:19;;;;;;;1.70;0.80;;;46.80;28.10;;;;;;4680867;30;20675;-73
2022/08/12 14:43:49;;;;;;;5.63;0.82;;;46.90;28.50;;;;;;4693090;30;20067;-72
2022/08/12 14:46:19;;;;;;;4.43;0.70;;;46.20;28.60;;;;;;4695207;30;20057;-73
2022/08/12 14:48:49;;;;;;;1.63;0.63;;;44.50;29.10;;;;;;4695044;30;20049;-73
2022/08/12 14:51:18;;;;;;;1.85;0.60;;;42.70;29.80;;;;;;4695072;30;20052;-73
2022/08/12 14:53:49;;;;;;;1.55;0.68;;;41.10;30.50;;;;;;4692982;30;20050;-72
2022/08/12 14:56:20;;;;;;;;;;;39.90;31.30;;;;;;4690897;30;20214;-72
2022/08/12 15:01:38;;;;;;;3.97;0.70;;;38.00;32.20;;;;;;4694701;30;20057;-72
2022/08/12 15:04:05;;;;;;;1.42;0.68;;;37.30;32.80;;;;;;4694405;30;20060;-72
2022/08/12 15:06:33;;;;;;;1.67;0.70;;;37.70;33.00;;;;;;4694926;30;20052;-72